createdAt,value
2022-08-26T00:08:27.312Z,74.72
2022-08-26T00:11:30.187Z,74.80
2022-08-26T00:14:34.861Z,74.95
2022-08-26T00:17:41.358Z,75.09
2022-08-26T00:20:48.185Z,75.17
2022-08-26T00:23:49.644Z,75.25
2022-08-26T00:26:52.362Z,75.48
2022-08-26T00:29:58.043Z,75.55
2022-08-26T00:33:40.142Z,75.99
2022-08-26T00:37:34.313Z,76.33
2022-08-26T00:41:15.218Z,76.59
2022-08-26T00:48:01.340Z,76.89
2022-08-26T00:51:29.783Z,77.03
2022-08-26T00:55:03.974Z,77.44
2022-08-26T00:58:46.487Z,77.61
2022-08-26T01:02:25.339Z,77.94
2022-08-26T01:05:47.371Z,78.09
2022-08-26T01:17:49.623Z,78.76
2022-08-26T01:21:36.778Z,78.97
2022-08-26T01:25:16.507Z,79.18
2022-08-26T01:41:55.311Z,80.15
2022-08-26T01:45:22.998Z,80.47
2022-08-26T01:48:45.767Z,80.56
2022-08-26T01:52:11.935Z,80.77
2022-08-26T01:55:36.950Z,80.99
2022-08-26T01:58:42.766Z,80.95
2022-08-26T02:01:44.622Z,81.18
2022-08-26T02:04:52.524Z,81.51
2022-08-26T02:07:54.402Z,81.68
2022-08-26T02:10:55.866Z,81.81
2022-08-26T02:14:03.725Z,82.01
2022-08-26T02:17:05.501Z,82.17
2022-08-26T02:20:13.348Z,83.23
2022-08-26T02:23:53.572Z,84.01
2022-08-26T02:27:21.325Z,84.97
2022-08-26T02:34:31.368Z,84.03
2022-08-26T02:37:53.322Z,83.73
2022-08-26T02:41:15.483Z,83.63
2022-08-26T02:44:55.882Z,83.74
2022-08-26T02:47:57.385Z,83.94
2022-08-26T02:51:01.210Z,83.99
2022-08-26T02:54:02.941Z,85.09
2022-08-26T03:07:44.483Z,86.07
2022-08-26T03:11:06.484Z,86.92
2022-08-26T03:14:28.150Z,87.23
2022-08-26T03:17:51.988Z,87.69
2022-08-26T03:21:16.800Z,87.56
2022-08-26T03:24:39.847Z,87.84
2022-08-26T03:28:02.110Z,88.03
2022-08-26T03:31:24.765Z,87.95
2022-08-26T03:39:28.471Z,87.81
2022-08-26T03:46:35.928Z,87.06
2022-08-26T03:50:07.371Z,86.66
2022-08-26T03:57:29.672Z,86.53
2022-08-26T04:01:13.904Z,86.35
2022-08-26T04:05:27.497Z,86.37
2022-08-26T04:12:47.766Z,86.40
2022-08-26T04:16:02.434Z,86.30
2022-08-26T04:26:59.626Z,85.03
2022-08-26T04:30:13.963Z,84.49
2022-08-26T04:41:15.263Z,83.07
2022-08-26T04:44:06.940Z,83.60
2022-08-26T04:45:30.813Z,82.70
2022-08-26T04:48:46.117Z,82.26
2022-08-26T04:52:46.044Z,81.71
2022-08-26T05:03:07.538Z,79.99
2022-08-26T05:07:09.736Z,79.67
2022-08-26T05:17:46.894Z,77.98
2022-08-26T05:20:56.178Z,76.82
2022-08-26T05:28:07.652Z,75.21
2022-08-26T05:32:00.645Z,74.35
2022-08-26T05:35:13.674Z,69.83
2022-08-26T05:39:02.344Z,61.98
2022-08-26T06:49:58.796Z,45.28
2022-08-26T06:53:50.920Z,44.03
2022-08-26T07:00:48.842Z,43.02
2022-08-26T07:03:52.912Z,42.98
2022-08-26T07:06:56.411Z,43.34
2022-08-26T07:10:07.124Z,41.98
2022-08-26T07:13:11.198Z,42.02
2022-08-26T07:16:16.952Z,41.19
2022-08-26T07:19:29.939Z,40.82
2022-08-26T07:22:33.020Z,40.81
2022-08-26T07:25:43.515Z,41.72
2022-08-26T07:48:55.089Z,44.08
2022-08-26T07:52:04.759Z,44.45
2022-08-26T07:55:11.804Z,44.03
2022-08-26T08:02:39.886Z,43.92
2022-08-26T08:06:44.800Z,40.65
2022-08-26T08:17:02.326Z,38.95
2022-08-26T08:20:27.977Z,38.65
2022-08-26T08:23:35.385Z,38.20
2022-08-26T08:27:00.899Z,37.16
2022-08-26T08:30:10.001Z,36.92
2022-08-26T08:33:18.571Z,36.60
2022-08-26T08:40:45.743Z,36.38
2022-08-26T08:43:53.758Z,35.76
2022-08-26T08:50:47.336Z,35.38
2022-08-26T08:53:54.635Z,35.86
2022-08-26T08:57:11.629Z,35.80
2022-08-26T09:00:17.796Z,35.57
2022-08-26T09:04:01.142Z,34.37
2022-08-26T09:07:13.757Z,34.23
2022-08-26T09:10:36.151Z,33.98
2022-08-26T09:13:39.727Z,33.30
2022-08-26T09:17:06.485Z,32.93
2022-08-26T09:20:38.414Z,32.86
2022-08-26T09:23:49.469Z,32.73
2022-08-26T09:26:51.438Z,32.22
2022-08-26T09:30:01.297Z,31.72
2022-08-26T09:33:15.977Z,31.40
2022-08-26T09:36:41.418Z,31.75
2022-08-26T09:39:43.215Z,31.33
2022-08-26T09:46:55.846Z,31.53
2022-08-26T09:54:30.467Z,31.43
2022-08-26T09:58:08.711Z,32.41
2022-08-26T10:01:30.481Z,30.93
2022-08-26T10:08:47.696Z,30.72
2022-08-26T10:16:49.876Z,29.97
2022-08-26T10:20:26.569Z,31.70
2022-08-26T10:28:29.740Z,31.06
2022-08-26T10:36:34.074Z,29.71
2022-08-26T10:40:32.815Z,29.52
2022-08-26T10:48:43.266Z,29.07
2022-08-26T10:52:12.331Z,28.96
2022-08-26T10:59:57.263Z,29.38
2022-08-26T11:07:24.454Z,27.71
2022-08-26T11:11:01.851Z,28.24
2022-08-26T11:18:54.954Z,28.50
2022-08-26T11:56:35.875Z,28.11
2022-08-26T11:59:41.663Z,28.53
2022-08-26T12:03:18.389Z,28.23
2022-08-26T12:06:47.934Z,27.19
2022-08-26T12:09:57.164Z,26.77
2022-08-26T12:13:00.946Z,26.56
2022-08-26T12:16:06.322Z,27.44
2022-08-26T12:19:23.992Z,26.40
2022-08-26T12:22:29.765Z,26.35
2022-08-26T12:25:32.932Z,26.98
2022-08-26T12:28:44.452Z,27.83
2022-08-26T12:38:53.718Z,27.67
2022-08-26T12:42:55.748Z,27.31
2022-08-26T12:58:40.894Z,26.59
2022-08-26T13:02:14.568Z,26.80
2022-08-26T13:05:41.115Z,26.85
2022-08-26T13:21:37.730Z,26.62
2022-08-26T13:24:44.174Z,26.23
2022-08-26T13:27:46.218Z,26.10
2022-08-26T14:22:32.803Z,27.22
2022-08-26T14:34:06.038Z,27.62
2022-08-26T16:05:27.381Z,31.66
2022-08-26T16:08:36.528Z,31.24
2022-08-26T16:11:41.213Z,31.24
2022-08-26T16:15:05.117Z,30.97
2022-08-26T16:18:23.569Z,31.63
2022-08-26T16:41:57.475Z,36.29
2022-08-26T16:45:18.476Z,36.38
2022-08-26T17:38:46.392Z,39.59
2022-08-26T17:41:49.870Z,39.76
2022-08-26T17:44:51.368Z,41.18
2022-08-26T17:47:55.494Z,40.03
2022-08-26T17:51:18.733Z,41.04
2022-08-26T17:54:40.149Z,41.45
2022-08-26T17:57:42.306Z,41.11
2022-08-26T18:00:46.652Z,41.03
2022-08-26T18:04:08.520Z,41.05
2022-08-26T18:07:52.321Z,41.29
2022-08-26T18:11:33.918Z,41.29
2022-08-26T18:14:55.637Z,41.41
2022-08-26T18:17:58.439Z,42.07
2022-08-26T18:21:01.557Z,41.62
2022-08-26T18:24:04.220Z,41.65
2022-08-26T18:27:06.144Z,42.22
2022-08-26T18:30:29.233Z,42.71
2022-08-26T18:34:05.343Z,42.62
2022-08-26T19:01:03.915Z,44.40
2022-08-26T19:04:46.108Z,44.12
2022-08-26T19:08:27.753Z,44.36
2022-08-26T19:11:50.423Z,44.79
2022-08-26T19:15:12.812Z,45.27
2022-08-26T19:18:15.119Z,45.50
2022-08-26T19:21:16.618Z,45.57
2022-08-26T19:24:19.007Z,45.92
2022-08-26T19:27:20.464Z,46.18
2022-08-26T19:30:22.462Z,45.79
2022-08-26T19:33:25.271Z,46.36
2022-08-26T19:36:28.376Z,46.12
2022-08-26T19:39:30.123Z,45.96
2022-08-26T19:42:52.463Z,45.76
2022-08-26T19:46:18.283Z,45.86
2022-08-26T19:49:59.572Z,46.19
2022-08-26T19:53:03.448Z,46.85
2022-08-26T19:56:04.999Z,46.66
2022-08-26T19:59:06.443Z,46.86
2022-08-26T20:02:11.165Z,45.91
2022-08-26T20:05:14.494Z,46.09
2022-08-26T20:08:20.465Z,46.05
2022-08-26T20:11:24.515Z,47.27
2022-08-26T20:28:39.288Z,46.77
2022-08-26T20:32:00.986Z,46.69
2022-08-26T20:35:23.538Z,46.71
2022-08-26T20:38:44.956Z,46.80
2022-08-26T20:41:47.852Z,47.11
2022-08-26T20:44:54.262Z,48.67
2022-08-26T20:47:56.553Z,49.18
2022-08-26T20:54:37.810Z,49.81
2022-08-26T20:58:20.857Z,47.83
2022-08-26T21:01:44.893Z,46.96
2022-08-26T21:05:06.963Z,47.02
2022-08-26T21:08:09.306Z,47.13
2022-08-26T21:11:13.247Z,49.35
2022-08-26T21:14:16.835Z,49.51
2022-08-26T21:17:18.767Z,48.62
2022-08-26T21:20:20.368Z,50.39
2022-08-26T21:23:23.136Z,49.16
2022-08-26T21:26:29.791Z,48.27
2022-08-26T21:29:32.323Z,47.73
2022-08-26T21:32:54.773Z,47.41
2022-08-26T21:36:36.164Z,47.16
2022-08-26T21:39:59.324Z,47.28
2022-08-26T21:43:25.939Z,46.67
2022-08-26T21:46:57.050Z,46.75
2022-08-26T21:50:18.535Z,49.30
2022-08-26T21:53:20.885Z,48.99
2022-08-26T21:56:24.474Z,49.66
2022-08-26T21:59:46.155Z,49.20
2022-08-26T22:02:47.583Z,49.80
2022-08-26T22:05:49.124Z,50.53
2022-08-26T22:09:31.206Z,51.68
2022-08-26T22:13:12.867Z,52.12
2022-08-26T22:16:37.954Z,52.13
2022-08-26T22:19:59.501Z,53.34
2022-08-26T22:23:22.236Z,53.54
2022-08-26T22:26:52.697Z,52.86
2022-08-26T22:30:15.117Z,52.94
2022-08-26T22:33:17.146Z,53.07
2022-08-26T22:36:23.134Z,53.42
2022-08-26T22:46:48.045Z,54.56
2022-08-26T22:50:10.145Z,54.66
2022-08-26T22:53:32.737Z,56.10
2022-08-26T22:56:57.603Z,57.60
2022-08-26T22:59:59.095Z,57.98
2022-08-26T23:03:01.994Z,59.08
2022-08-26T23:06:06.192Z,58.71
2022-08-26T23:09:08.247Z,59.50
2022-08-26T23:12:10.125Z,59.31
2022-08-26T23:15:12.191Z,60.06
2022-08-26T23:30:43.555Z,61.04
2022-08-26T23:33:45.030Z,60.42
2022-08-26T23:36:46.995Z,60.87
2022-08-26T23:44:45.655Z,60.52
2022-08-26T23:47:47.961Z,61.63
2022-08-26T23:50:49.682Z,60.19
2022-08-26T23:53:51.337Z,61.55
